Terminal Aerodrome Forecast
Issued by NWS Charleston, WV

Home | Current Version | Previous Version | Text Only | Print | Product List | Glossary On
Versions: 1 2 3 4 5 6 7 8 9 10 11 12 13 14 15 16 17 18 19 20 21 22 23 24 25 26
000
FTUS41 KRLX 280500 CCA
TAFPKB
TAF COR
KPKB 280549Z 2806/2906 00000KT 2SM BR SCT015
     FM280800 00000KT 1/2SM FG VV001
     FM281300 03004KT 3SM BR SCT002
     FM281400 03005KT P6SM FEW030
     FM281800 01004KT P6SM FEW045=

USA.gov is the U.S. government's official web portal to all federal, state and local government web resources and services.